createdAt,value
2023-03-15T00:00:11.977Z,40.50
2023-03-15T00:02:41.702Z,40.20
2023-03-15T00:05:14.089Z,40.10
2023-03-15T00:07:42.258Z,40.10
2023-03-15T00:10:11.598Z,40.00
2023-03-15T00:12:39.785Z,40.00
2023-03-15T00:15:08.862Z,40.10
2023-03-15T00:17:37.079Z,40.10
2023-03-15T00:20:06.770Z,40.10
2023-03-15T00:22:36.515Z,40.00
2023-03-15T00:25:05.018Z,40.00
2023-03-15T00:27:33.183Z,40.00
2023-03-15T00:30:01.638Z,40.00
2023-03-15T00:32:29.847Z,40.00
2023-03-15T00:34:58.052Z,39.90
2023-03-15T00:37:26.446Z,40.00
2023-03-15T00:39:56.489Z,39.90
2023-03-15T00:42:27.481Z,40.00
2023-03-15T00:44:56.458Z,40.00
2023-03-15T00:47:24.795Z,40.00
2023-03-15T00:49:53.224Z,40.00
2023-03-15T00:52:22.198Z,40.00
2023-03-15T00:54:53.367Z,40.00
2023-03-15T00:57:23.583Z,40.00
2023-03-15T00:59:53.198Z,40.00
2023-03-15T01:02:22.345Z,40.00
2023-03-15T01:04:51.322Z,40.00
2023-03-15T01:07:19.523Z,39.90
2023-03-15T01:09:48.588Z,40.00
2023-03-15T01:12:16.874Z,39.90
2023-03-15T01:14:46.426Z,40.70
2023-03-15T01:17:14.589Z,40.00
2023-03-15T01:19:42.738Z,39.90
2023-03-15T01:22:10.953Z,39.90
2023-03-15T01:24:39.068Z,39.80
2023-03-15T01:27:07.283Z,39.80
2023-03-15T01:29:35.688Z,39.90
2023-03-15T01:32:05.702Z,39.80
2023-03-15T01:34:34.159Z,39.80
2023-03-15T01:37:02.971Z,39.80
2023-03-15T01:39:31.148Z,39.90
2023-03-15T01:41:59.353Z,39.90
2023-03-15T01:44:50.946Z,39.90
2023-03-15T01:47:21.034Z,39.80
2023-03-15T01:49:55.882Z,39.90
2023-03-15T01:52:30.368Z,39.90
2023-03-15T01:55:02.341Z,40.00
2023-03-15T01:57:36.310Z,40.00
2023-03-15T02:00:11.590Z,39.90
2023-03-15T02:02:46.565Z,39.90
2023-03-15T02:05:19.810Z,40.00
2023-03-15T02:07:51.001Z,39.90
2023-03-15T02:10:24.343Z,39.90
2023-03-15T02:12:54.209Z,39.90
2023-03-15T02:15:22.349Z,39.90
2023-03-15T02:17:52.140Z,40.00
2023-03-15T02:20:31.767Z,40.50
2023-03-15T02:23:03.382Z,39.90
2023-03-15T02:25:40.729Z,40.00
2023-03-15T02:28:13.073Z,39.90
2023-03-15T02:30:41.393Z,40.00
2023-03-15T02:33:16.203Z,40.00
2023-03-15T02:35:44.428Z,39.90
2023-03-15T02:38:12.600Z,40.00
2023-03-15T02:40:40.892Z,40.00
2023-03-15T02:43:14.975Z,39.90
2023-03-15T02:45:43.857Z,40.00
2023-03-15T02:48:13.023Z,40.00
2023-03-15T02:50:41.349Z,40.00
2023-03-15T02:53:09.777Z,40.00
2023-03-15T02:55:37.969Z,39.90
2023-03-15T02:58:06.264Z,40.00
2023-03-15T03:00:35.827Z,40.00
2023-03-15T03:03:04.010Z,40.00
2023-03-15T03:05:32.283Z,40.00
2023-03-15T03:08:00.420Z,40.10
2023-03-15T03:10:28.535Z,40.20
2023-03-15T03:12:56.733Z,40.50
2023-03-15T03:15:24.893Z,40.10
2023-03-15T03:17:54.571Z,40.00
2023-03-15T03:20:22.743Z,40.20
2023-03-15T03:22:50.903Z,40.20
2023-03-15T03:25:19.172Z,40.10
2023-03-15T03:27:47.302Z,40.10
2023-03-15T03:30:16.336Z,40.10
2023-03-15T03:32:44.552Z,40.10
2023-03-15T03:35:15.978Z,40.00
2023-03-15T03:37:44.381Z,40.10
2023-03-15T03:40:13.859Z,40.10
2023-03-15T03:42:42.024Z,40.20
2023-03-15T03:45:11.012Z,40.10
2023-03-15T03:47:39.178Z,40.10
2023-03-15T03:50:08.301Z,40.10
2023-03-15T03:52:37.870Z,40.10
2023-03-15T03:55:06.604Z,40.00
2023-03-15T03:57:35.586Z,40.20
2023-03-15T04:00:04.754Z,40.10
2023-03-15T04:02:34.175Z,40.10
2023-03-15T04:05:02.591Z,40.10
2023-03-15T04:07:30.878Z,40.10
2023-03-15T04:10:02.397Z,40.10
2023-03-15T04:12:30.568Z,40.20
2023-03-15T04:14:58.756Z,40.20
2023-03-15T04:17:26.915Z,40.20
2023-03-15T04:19:55.024Z,40.20
2023-03-15T04:22:23.184Z,40.20
2023-03-15T04:24:51.574Z,40.20
2023-03-15T04:27:21.100Z,40.20
2023-03-15T04:29:49.196Z,40.20
2023-03-15T04:32:18.120Z,40.20
2023-03-15T04:34:51.372Z,40.20
2023-03-15T04:37:19.664Z,40.20
2023-03-15T04:39:47.786Z,40.20
2023-03-15T04:42:15.949Z,40.10
2023-03-15T04:44:45.471Z,40.10
2023-03-15T04:47:13.575Z,40.20
2023-03-15T04:49:41.759Z,40.20
2023-03-15T04:52:10.094Z,40.30
2023-03-15T04:54:39.369Z,40.30
2023-03-15T04:57:07.568Z,40.30
2023-03-15T04:59:35.706Z,40.30
2023-03-15T05:02:05.447Z,40.20
2023-03-15T05:04:33.624Z,40.20
2023-03-15T05:07:01.742Z,40.20
2023-03-15T05:09:29.875Z,40.80
2023-03-15T05:11:57.979Z,40.10
2023-03-15T05:14:26.224Z,40.10
2023-03-15T05:16:56.029Z,40.00
2023-03-15T05:19:25.700Z,39.90
2023-03-15T05:21:54.733Z,39.90
2023-03-15T05:24:23.530Z,39.90
2023-03-15T05:26:54.345Z,39.80
2023-03-15T05:29:23.189Z,39.80
2023-03-15T05:31:52.440Z,39.70
2023-03-15T05:34:24.168Z,39.80
2023-03-15T05:36:53.782Z,39.80
2023-03-15T05:39:22.963Z,39.60
2023-03-15T05:41:51.772Z,39.50
2023-03-15T05:44:19.978Z,39.50
2023-03-15T05:46:48.084Z,39.50
2023-03-15T05:49:16.224Z,39.50
2023-03-15T05:51:44.339Z,39.40
2023-03-15T05:54:13.893Z,39.40
2023-03-15T05:56:42.026Z,39.40
2023-03-15T05:59:10.175Z,39.30
2023-03-15T06:01:38.318Z,39.30
2023-03-15T06:04:06.537Z,39.20
2023-03-15T06:06:34.709Z,39.20
2023-03-15T06:09:03.150Z,39.20
2023-03-15T06:11:32.649Z,39.20
2023-03-15T06:14:00.829Z,39.20
2023-03-15T06:16:29.042Z,39.20
2023-03-15T06:18:57.228Z,39.00
2023-03-15T06:21:25.451Z,39.00
2023-03-15T06:23:53.633Z,39.00
2023-03-15T06:26:23.023Z,39.00
2023-03-15T06:28:52.588Z,38.90
2023-03-15T06:31:20.719Z,38.80
2023-03-15T06:33:48.844Z,38.80
2023-03-15T06:36:17.038Z,38.80
2023-03-15T06:38:45.188Z,38.70
2023-03-15T06:41:15.436Z,38.80
2023-03-15T06:43:43.678Z,38.60
2023-03-15T06:46:13.347Z,38.50
2023-03-15T06:48:41.493Z,38.50
2023-03-15T06:51:09.682Z,38.50
2023-03-15T06:53:38.403Z,38.40
2023-03-15T06:56:07.130Z,38.40
2023-03-15T06:58:35.279Z,38.40
2023-03-15T07:01:03.525Z,38.40
2023-03-15T07:03:33.094Z,38.40
2023-03-15T07:06:01.285Z,38.50
2023-03-15T07:08:29.385Z,38.40
2023-03-15T07:10:57.740Z,38.20
2023-03-15T07:13:25.926Z,38.10
2023-03-15T07:15:54.641Z,38.10
2023-03-15T07:18:23.092Z,38.10
2023-03-15T07:20:58.730Z,38.20
2023-03-15T07:23:26.902Z,38.10
2023-03-15T07:25:55.838Z,38.10
2023-03-15T07:28:24.879Z,38.00
2023-03-15T07:30:57.565Z,37.90
2023-03-15T07:33:27.277Z,37.90
2023-03-15T07:35:56.379Z,37.90
2023-03-15T07:38:28.869Z,37.80
2023-03-15T07:40:57.463Z,37.80
2023-03-15T07:43:25.685Z,37.80
2023-03-15T07:45:53.863Z,38.20
2023-03-15T07:48:22.005Z,37.40
2023-03-15T07:50:50.703Z,37.30
2023-03-15T07:53:18.823Z,37.30
2023-03-15T07:55:49.858Z,37.20
2023-03-15T07:58:20.275Z,37.20
2023-03-15T08:00:49.055Z,37.00
2023-03-15T08:03:17.416Z,37.40
2023-03-15T08:05:45.647Z,37.50
2023-03-15T08:08:13.828Z,37.80
2023-03-15T08:10:43.271Z,37.90
2023-03-15T08:13:13.034Z,37.10
2023-03-15T08:15:41.436Z,36.60
2023-03-15T08:18:09.578Z,37.20
2023-03-15T08:20:37.789Z,37.00
2023-03-15T08:23:06.326Z,36.70
2023-03-15T08:25:34.492Z,36.30
2023-03-15T08:28:02.620Z,36.30
2023-03-15T08:30:32.132Z,36.00
2023-03-15T08:33:00.329Z,36.10
2023-03-15T08:35:28.675Z,36.40
2023-03-15T08:37:56.854Z,36.30
2023-03-15T08:40:25.069Z,36.10
2023-03-15T08:42:53.726Z,35.80
2023-03-15T08:45:23.989Z,35.00
2023-03-15T08:47:56.938Z,34.60
2023-03-15T08:50:26.755Z,33.80
2023-03-15T08:52:54.766Z,34.10
2023-03-15T08:55:22.875Z,33.30
2023-03-15T08:57:51.130Z,34.10
2023-03-15T09:00:22.929Z,34.40
2023-03-15T09:02:53.409Z,33.80
2023-03-15T09:05:22.396Z,33.20
2023-03-15T09:07:53.136Z,33.40
2023-03-15T09:10:22.147Z,32.90
2023-03-15T09:12:53.668Z,33.00
2023-03-15T09:15:22.052Z,33.10
2023-03-15T09:17:52.070Z,31.70
2023-03-15T09:20:24.007Z,32.30
2023-03-15T09:22:53.680Z,32.30
2023-03-15T09:25:22.171Z,31.70
2023-03-15T09:27:50.642Z,30.30
2023-03-15T09:30:19.851Z,31.70
2023-03-15T09:32:48.431Z,31.50
2023-03-15T09:35:18.275Z,31.30
2023-03-15T09:37:48.771Z,31.50
2023-03-15T09:40:21.032Z,30.60
2023-03-15T09:43:15.114Z,30.70
2023-03-15T09:45:56.460Z,30.00
2023-03-15T09:48:32.409Z,29.70
2023-03-15T09:51:06.041Z,29.00
2023-03-15T09:53:41.348Z,28.60
2023-03-15T09:56:23.717Z,28.90
2023-03-15T09:58:55.545Z,29.40
2023-03-15T10:01:29.077Z,31.60
2023-03-15T10:03:57.478Z,31.50
2023-03-15T10:06:29.995Z,30.50
2023-03-15T10:09:01.270Z,29.90
2023-03-15T10:11:38.742Z,30.00
2023-03-15T10:14:22.765Z,29.40
2023-03-15T10:16:52.562Z,29.10
2023-03-15T10:19:29.973Z,29.00
2023-03-15T10:22:03.260Z,28.70
2023-03-15T10:24:40.988Z,28.60
2023-03-15T10:27:16.897Z,28.50
2023-03-15T10:29:46.838Z,28.10
2023-03-15T10:32:19.046Z,27.00
2023-03-15T10:34:51.084Z,27.60
2023-03-15T10:37:19.318Z,28.80
2023-03-15T10:39:53.434Z,28.80
2023-03-15T10:42:29.954Z,28.40
2023-03-15T10:44:58.725Z,28.40
2023-03-15T10:47:28.217Z,27.80
2023-03-15T10:50:00.619Z,26.80
2023-03-15T10:52:34.975Z,27.70
2023-03-15T10:55:07.622Z,28.30
2023-03-15T10:57:39.097Z,27.80
2023-03-15T11:00:24.046Z,27.60
2023-03-15T11:03:01.619Z,27.40
2023-03-15T11:05:33.228Z,27.20
2023-03-15T11:08:02.408Z,27.00
2023-03-15T11:10:35.788Z,27.00
2023-03-15T11:13:15.712Z,26.90
2023-03-15T11:15:53.897Z,26.70
2023-03-15T11:18:28.466Z,26.00
2023-03-15T11:20:58.326Z,27.00
2023-03-15T11:23:29.376Z,27.00
2023-03-15T11:25:59.324Z,26.80
2023-03-15T11:28:31.016Z,26.60
2023-03-15T11:31:01.005Z,26.50
2023-03-15T11:33:39.864Z,25.60
2023-03-15T11:36:14.395Z,26.10
2023-03-15T11:38:45.237Z,27.60
2023-03-15T11:41:27.648Z,27.90
2023-03-15T11:44:03.749Z,26.60
2023-03-15T11:46:35.590Z,27.30
2023-03-15T11:49:10.531Z,27.70
2023-03-15T11:51:38.801Z,27.00
2023-03-15T11:54:12.517Z,27.40
2023-03-15T11:56:51.471Z,27.30
2023-03-15T11:59:21.784Z,27.20
2023-03-15T12:01:52.405Z,26.90
2023-03-15T12:04:51.126Z,26.70
2023-03-15T12:07:38.432Z,25.90
2023-03-15T12:10:35.241Z,26.60
2023-03-15T12:13:24.709Z,26.40
2023-03-15T12:15:53.918Z,26.30
2023-03-15T12:18:28.147Z,26.50
2023-03-15T12:21:08.752Z,27.00
2023-03-15T12:23:42.612Z,27.40
2023-03-15T12:26:29.048Z,28.70
2023-03-15T12:29:12.801Z,28.50
2023-03-15T12:31:58.881Z,28.20
2023-03-15T12:34:38.275Z,28.00
2023-03-15T12:37:09.616Z,27.60
2023-03-15T12:39:44.502Z,27.90
2023-03-15T12:42:54.682Z,27.30
2023-03-15T12:45:46.554Z,27.40
2023-03-15T12:48:28.801Z,28.50
2023-03-15T12:51:11.435Z,28.40
2023-03-15T12:53:47.670Z,28.00
2023-03-15T12:56:45.941Z,27.80
2023-03-15T12:59:21.824Z,27.80
2023-03-15T13:01:52.378Z,27.80
2023-03-15T13:04:21.837Z,27.60
2023-03-15T13:06:58.580Z,26.90
2023-03-15T13:09:54.654Z,27.70
2023-03-15T13:12:28.513Z,27.70
2023-03-15T13:15:02.621Z,27.20
2023-03-15T13:17:41.702Z,28.10
2023-03-15T13:20:24.633Z,28.00
2023-03-15T13:23:00.481Z,27.90
2023-03-15T13:25:34.961Z,27.80
2023-03-15T13:28:08.728Z,27.80
2023-03-15T13:30:40.185Z,27.70
2023-03-15T13:33:20.998Z,27.70
2023-03-15T13:35:55.413Z,27.70
2023-03-15T13:38:27.246Z,27.70
2023-03-15T13:40:56.110Z,27.80
2023-03-15T13:43:28.136Z,27.80
2023-03-15T13:45:59.378Z,27.80
2023-03-15T13:48:34.455Z,27.50
2023-03-15T13:51:06.115Z,28.00
2023-03-15T13:53:49.005Z,27.60
2023-03-15T13:56:20.086Z,28.50
2023-03-15T13:58:49.773Z,28.50
2023-03-15T14:01:19.202Z,28.50
2023-03-15T14:03:57.606Z,28.40
2023-03-15T14:06:26.754Z,28.40
2023-03-15T14:09:00.477Z,28.30
2023-03-15T14:11:37.413Z,27.10
2023-03-15T14:14:23.163Z,27.50
2023-03-15T14:17:04.253Z,26.80
2023-03-15T14:19:36.922Z,27.20
2023-03-15T14:22:15.768Z,27.30
2023-03-15T14:24:47.615Z,26.60
2023-03-15T14:27:17.934Z,26.70
2023-03-15T14:29:49.555Z,28.10
2023-03-15T14:32:27.824Z,27.40
2023-03-15T14:35:03.682Z,27.50
2023-03-15T14:37:36.771Z,28.20
2023-03-15T14:40:16.900Z,28.90
2023-03-15T14:42:45.438Z,28.60
2023-03-15T14:45:13.916Z,28.30
2023-03-15T14:47:55.439Z,27.80
2023-03-15T14:50:28.930Z,27.40
2023-03-15T14:52:59.259Z,27.80
2023-03-15T14:55:33.385Z,28.60
2023-03-15T14:58:01.874Z,28.40
2023-03-15T15:00:30.355Z,27.70
2023-03-15T15:02:59.375Z,28.20
2023-03-15T15:05:31.530Z,28.60
2023-03-15T15:08:05.248Z,28.70
2023-03-15T15:10:34.929Z,28.50
2023-03-15T15:13:06.806Z,28.00
2023-03-15T15:15:53.554Z,27.80
2023-03-15T15:18:24.179Z,27.50
2023-03-15T15:20:55.932Z,27.40
2023-03-15T15:23:27.504Z,26.90
2023-03-15T15:25:58.601Z,27.70
2023-03-15T15:28:35.508Z,27.90
2023-03-15T15:31:06.790Z,27.90
2023-03-15T15:33:35.036Z,27.70
2023-03-15T15:36:04.977Z,27.60
2023-03-15T15:38:38.922Z,27.60
2023-03-15T15:41:12.703Z,27.60
2023-03-15T15:43:40.880Z,27.50
2023-03-15T15:46:13.553Z,27.40
2023-03-15T15:48:42.722Z,27.40
2023-03-15T15:51:23.994Z,27.30
2023-03-15T15:53:53.529Z,27.40
2023-03-15T15:56:23.512Z,27.30
2023-03-15T15:58:51.750Z,27.40
2023-03-15T16:01:19.891Z,27.40
2023-03-15T16:03:48.040Z,27.50
2023-03-15T16:06:20.099Z,27.60
2023-03-15T16:08:50.805Z,27.70
2023-03-15T16:11:19.884Z,27.80
2023-03-15T16:13:50.992Z,27.80
2023-03-15T16:16:19.852Z,27.90
2023-03-15T16:18:48.043Z,28.10
2023-03-15T16:21:23.540Z,28.20
2023-03-15T16:24:00.359Z,28.40
2023-03-15T16:26:29.026Z,28.50
2023-03-15T16:28:57.003Z,28.70
2023-03-15T16:31:25.169Z,28.90
2023-03-15T16:33:53.331Z,29.00
2023-03-15T16:36:25.348Z,29.10
2023-03-15T16:38:53.558Z,29.30
2023-03-15T16:41:21.657Z,29.50
2023-03-15T16:43:49.796Z,29.60
2023-03-15T16:46:18.491Z,30.50
2023-03-15T16:48:46.561Z,30.00
2023-03-15T16:51:17.087Z,30.40
2023-03-15T16:53:46.757Z,30.50
2023-03-15T16:56:16.427Z,30.80
2023-03-15T16:58:45.912Z,31.70
2023-03-15T17:01:14.046Z,31.20
2023-03-15T17:03:42.784Z,31.60
2023-03-15T17:06:20.161Z,31.70
2023-03-15T17:08:50.324Z,31.80
2023-03-15T17:11:19.266Z,32.10
2023-03-15T17:13:47.684Z,32.20
2023-03-15T17:16:17.010Z,32.50
2023-03-15T17:18:47.754Z,32.60
2023-03-15T17:21:17.664Z,32.80
2023-03-15T17:23:46.976Z,32.80
2023-03-15T17:26:19.119Z,32.80
2023-03-15T17:28:47.667Z,32.90
2023-03-15T17:31:24.974Z,33.00
2023-03-15T17:33:53.377Z,32.90
2023-03-15T17:36:24.598Z,33.00
2023-03-15T17:38:54.554Z,33.10
2023-03-15T17:41:28.163Z,33.20
2023-03-15T17:43:56.635Z,33.10
2023-03-15T17:46:30.101Z,33.20
2023-03-15T17:48:59.303Z,33.20
2023-03-15T17:51:30.265Z,33.40
2023-03-15T17:53:59.459Z,33.50
2023-03-15T17:56:28.914Z,33.50
2023-03-15T17:58:56.990Z,33.40
2023-03-15T18:01:27.932Z,33.70
2023-03-15T18:03:57.231Z,33.80
2023-03-15T18:06:25.208Z,33.80
2023-03-15T18:08:53.872Z,33.70
2023-03-15T18:11:26.384Z,33.80
2023-03-15T18:13:56.542Z,34.00
2023-03-15T18:16:25.140Z,34.00
2023-03-15T18:18:53.309Z,34.30
2023-03-15T18:21:24.154Z,34.20
2023-03-15T18:23:52.727Z,34.30
2023-03-15T18:26:21.772Z,34.40
2023-03-15T18:28:50.044Z,34.50
2023-03-15T18:31:21.427Z,34.70
2023-03-15T18:33:50.413Z,34.90
2023-03-15T18:36:19.153Z,34.60
2023-03-15T18:38:47.411Z,34.60
2023-03-15T18:41:20.437Z,34.70
2023-03-15T18:43:51.440Z,35.00
2023-03-15T18:46:22.593Z,35.00
2023-03-15T18:48:53.492Z,35.00
2023-03-15T18:51:25.712Z,35.00
2023-03-15T18:53:54.334Z,35.20
2023-03-15T18:56:24.662Z,35.10
2023-03-15T18:58:53.919Z,35.20
2023-03-15T19:01:25.007Z,35.30
2023-03-15T19:03:54.811Z,35.40
2023-03-15T19:06:23.581Z,35.30
2023-03-15T19:08:54.239Z,35.30
2023-03-15T19:11:24.086Z,35.30
2023-03-15T19:13:52.574Z,35.30
2023-03-15T19:16:21.561Z,35.50
2023-03-15T19:18:52.351Z,35.30
2023-03-15T19:21:21.185Z,35.30
2023-03-15T19:23:49.409Z,36.10
2023-03-15T19:26:17.578Z,35.40
2023-03-15T19:28:45.736Z,35.50
2023-03-15T19:31:13.998Z,35.50
2023-03-15T19:33:42.218Z,35.70
2023-03-15T19:36:11.973Z,35.70
2023-03-15T19:38:40.242Z,35.90
2023-03-15T19:41:12.413Z,35.80
2023-03-15T19:43:43.344Z,35.70
2023-03-15T19:46:13.915Z,35.60
2023-03-15T19:48:42.555Z,35.50
2023-03-15T19:51:12.177Z,35.40
2023-03-15T19:53:40.121Z,35.60
2023-03-15T19:56:09.976Z,35.70
2023-03-15T19:58:38.138Z,35.90
2023-03-15T20:01:06.465Z,35.90
2023-03-15T20:03:35.222Z,35.70
2023-03-15T20:06:09.056Z,35.60
2023-03-15T20:08:39.335Z,35.60
2023-03-15T20:11:07.995Z,35.70
2023-03-15T20:13:37.027Z,35.80
2023-03-15T20:16:06.083Z,35.90
2023-03-15T20:18:34.308Z,35.90
2023-03-15T20:21:02.449Z,35.90
2023-03-15T20:23:30.768Z,35.80
2023-03-15T20:26:09.882Z,35.70
2023-03-15T20:28:38.472Z,35.70
2023-03-15T20:31:08.672Z,35.60
2023-03-15T20:33:37.040Z,35.70
2023-03-15T20:36:06.268Z,35.80
2023-03-15T20:38:37.169Z,35.90
2023-03-15T20:41:07.961Z,36.00
2023-03-15T20:43:36.855Z,36.00
2023-03-15T20:46:05.255Z,35.90
2023-03-15T20:48:36.060Z,35.80
2023-03-15T20:51:05.259Z,35.80
2023-03-15T20:53:34.769Z,35.80
2023-03-15T20:56:03.588Z,35.90
2023-03-15T20:58:33.128Z,35.90
2023-03-15T21:01:06.080Z,36.10
2023-03-15T21:03:35.301Z,36.10
2023-03-15T21:06:04.470Z,36.00
2023-03-15T21:08:33.313Z,35.90
2023-03-15T21:11:01.897Z,35.80
2023-03-15T21:13:30.100Z,35.80
2023-03-15T21:16:00.475Z,35.80
2023-03-15T21:18:28.723Z,35.80
2023-03-15T21:20:58.319Z,35.80
2023-03-15T21:23:27.917Z,35.90
2023-03-15T21:25:56.637Z,35.80
2023-03-15T21:28:25.192Z,35.70
2023-03-15T21:30:54.105Z,35.80
2023-03-15T21:33:25.340Z,35.80
2023-03-15T21:35:53.658Z,35.90
2023-03-15T21:38:21.834Z,35.80
2023-03-15T21:40:52.494Z,35.90
2023-03-15T21:43:20.876Z,35.90
2023-03-15T21:45:49.135Z,35.90
2023-03-15T21:48:17.967Z,36.00
2023-03-15T21:50:47.475Z,35.90
2023-03-15T21:53:15.635Z,36.00
2023-03-15T21:55:46.320Z,35.90
2023-03-15T21:58:14.887Z,36.00
2023-03-15T22:00:43.112Z,36.00
2023-03-15T22:03:13.571Z,36.00
2023-03-15T22:05:42.058Z,36.10
2023-03-15T22:08:11.628Z,36.00
2023-03-15T22:10:39.776Z,36.10
2023-03-15T22:13:07.942Z,36.00
2023-03-15T22:15:36.069Z,36.10
2023-03-15T22:18:04.529Z,36.10
2023-03-15T22:20:32.684Z,36.20
2023-03-15T22:23:04.355Z,36.20
2023-03-15T22:25:34.026Z,36.20
2023-03-15T22:28:02.910Z,36.10
2023-03-15T22:30:31.467Z,36.10
2023-03-15T22:33:00.063Z,36.20
2023-03-15T22:35:28.345Z,36.20
2023-03-15T22:37:58.220Z,36.40
2023-03-15T22:40:28.482Z,36.30
2023-03-15T22:42:58.457Z,36.30
2023-03-15T22:45:27.113Z,36.30
2023-03-15T22:47:55.387Z,36.50
2023-03-15T22:50:24.074Z,36.40
2023-03-15T22:52:52.626Z,36.60
2023-03-15T22:55:21.150Z,36.70
2023-03-15T22:57:49.576Z,36.80
2023-03-15T23:00:23.278Z,36.80
2023-03-15T23:02:51.698Z,36.80
2023-03-15T23:05:21.356Z,36.90
2023-03-15T23:07:49.282Z,37.00
2023-03-15T23:10:17.686Z,37.00
2023-03-15T23:12:46.057Z,37.00
2023-03-15T23:15:14.915Z,37.10
2023-03-15T23:17:46.052Z,37.20
2023-03-15T23:20:15.810Z,37.20
2023-03-15T23:22:43.897Z,37.20
2023-03-15T23:25:13.520Z,37.20
2023-03-15T23:27:41.957Z,37.10
2023-03-15T23:30:11.745Z,37.00
2023-03-15T23:32:40.101Z,37.00
2023-03-15T23:35:42.059Z,36.90
2023-03-15T23:38:10.216Z,36.90
2023-03-15T23:40:38.469Z,36.90
2023-03-15T23:43:09.255Z,36.90
2023-03-15T23:45:37.421Z,36.80
2023-03-15T23:48:05.953Z,36.90
2023-03-15T23:50:34.116Z,36.80
2023-03-15T23:53:03.645Z,36.90
2023-03-15T23:55:33.348Z,36.80
2023-03-15T23:58:01.585Z,36.80
